createdAt,value
2022-12-25T00:02:30.006Z,10.80
2022-12-25T00:05:27.492Z,10.79
2022-12-25T00:08:25.250Z,10.81
2022-12-25T00:11:22.681Z,10.80
2022-12-25T00:14:20.403Z,10.77
2022-12-25T00:17:18.151Z,10.72
2022-12-25T00:20:15.584Z,10.66
2022-12-25T00:23:13.292Z,10.59
2022-12-25T00:26:10.722Z,10.52
2022-12-25T00:29:08.359Z,10.47
2022-12-25T00:32:05.793Z,10.45
2022-12-25T00:35:03.566Z,10.44
2022-12-25T00:38:01.024Z,10.44
2022-12-25T00:40:58.756Z,10.41
2022-12-25T00:43:56.778Z,10.40
2022-12-25T00:46:54.335Z,10.39
2022-12-25T00:49:52.174Z,10.38
2022-12-25T00:52:49.607Z,10.34
2022-12-25T00:55:47.296Z,10.29
2022-12-25T00:58:44.730Z,10.24
2022-12-25T01:01:42.573Z,10.18
2022-12-25T01:04:40.443Z,10.10
2022-12-25T01:07:37.897Z,10.06
2022-12-25T01:10:35.591Z,10.03
2022-12-25T01:13:34.713Z,10.00
2022-12-25T01:16:32.454Z,9.93
2022-12-25T01:19:29.937Z,9.88
2022-12-25T01:22:27.701Z,9.86
2022-12-25T01:25:25.147Z,9.85
2022-12-25T01:28:22.761Z,9.87
2022-12-25T01:31:20.424Z,9.85
2022-12-25T01:34:17.874Z,9.85
2022-12-25T01:37:15.618Z,9.87
2022-12-25T01:40:13.062Z,9.91
2022-12-25T01:43:17.054Z,9.92
2022-12-25T01:46:16.516Z,9.91
2022-12-25T01:49:14.148Z,9.90
2022-12-25T01:52:11.791Z,9.89
2022-12-25T01:55:12.261Z,9.88
2022-12-25T01:58:10.025Z,9.86
2022-12-25T02:01:07.561Z,9.86
2022-12-25T02:04:05.282Z,9.85
2022-12-25T02:07:02.720Z,9.85
2022-12-25T02:10:00.460Z,9.86
2022-12-25T02:12:57.933Z,9.88
2022-12-25T02:15:55.618Z,9.90
2022-12-25T02:18:53.077Z,9.92
2022-12-25T02:21:50.715Z,9.94
2022-12-25T02:24:48.366Z,9.99
2022-12-25T02:27:45.828Z,10.04
2022-12-25T02:30:43.524Z,10.07
2022-12-25T02:33:59.012Z,10.09
2022-12-25T02:36:56.747Z,10.10
2022-12-25T02:40:00.451Z,10.08
2022-12-25T02:43:16.023Z,10.06
2022-12-25T02:46:31.408Z,10.03
2022-12-25T02:49:46.736Z,9.97
2022-12-25T02:53:02.171Z,9.95
2022-12-25T02:56:17.189Z,9.90
2022-12-25T02:59:32.498Z,9.84
2022-12-25T03:02:47.714Z,9.79
2022-12-25T03:06:03.153Z,9.72
2022-12-25T03:09:20.930Z,9.67
2022-12-25T03:12:18.374Z,9.65
2022-12-25T03:15:36.113Z,9.65
2022-12-25T03:18:33.895Z,9.66
2022-12-25T03:21:49.161Z,9.65
2022-12-25T03:25:04.578Z,9.65
2022-12-25T03:28:02.018Z,9.67
2022-12-25T03:31:15.124Z,9.66
2022-12-25T03:34:30.665Z,9.65
2022-12-25T03:37:45.084Z,9.65
2022-12-25T03:41:00.447Z,9.65
2022-12-25T03:44:30.502Z,9.64
2022-12-25T03:47:45.805Z,9.64
2022-12-25T03:51:01.164Z,9.67
2022-12-25T03:54:16.538Z,9.66
2022-12-25T03:57:31.792Z,9.64
2022-12-25T04:00:47.441Z,9.61
2022-12-25T04:04:02.372Z,9.57
2022-12-25T04:07:22.788Z,9.53
2022-12-25T04:10:37.988Z,9.47
2022-12-25T04:13:53.525Z,9.41
2022-12-25T04:17:08.887Z,9.37
2022-12-25T04:20:24.265Z,9.35
2022-12-25T04:23:39.597Z,9.31
2022-12-25T04:26:54.610Z,9.28
2022-12-25T04:30:10.325Z,9.26
2022-12-25T04:33:37.354Z,9.27
2022-12-25T04:36:34.790Z,9.24
2022-12-25T04:39:32.521Z,9.25
2022-12-25T04:42:29.954Z,9.27
2022-12-25T04:45:27.632Z,9.30
2022-12-25T04:48:25.062Z,9.33
2022-12-25T04:51:22.851Z,9.34
2022-12-25T04:54:20.296Z,9.34
2022-12-25T04:57:18.499Z,9.35
2022-12-25T05:00:16.339Z,9.33
2022-12-25T05:03:13.897Z,9.29
2022-12-25T05:06:11.680Z,9.20
2022-12-25T05:09:09.177Z,9.10
2022-12-25T05:12:06.844Z,9.02
2022-12-25T05:15:04.325Z,8.94
2022-12-25T05:18:02.032Z,8.88
2022-12-25T05:20:59.449Z,8.84
2022-12-25T05:23:57.164Z,8.78
2022-12-25T05:26:54.588Z,8.73
2022-12-25T05:29:52.296Z,8.71
2022-12-25T05:32:49.727Z,8.67
2022-12-25T05:35:47.535Z,8.60
2022-12-25T05:38:45.266Z,8.53
2022-12-25T05:41:42.704Z,8.45
2022-12-25T05:44:40.404Z,8.38
2022-12-25T05:47:37.825Z,8.27
2022-12-25T05:50:35.558Z,8.17
2022-12-25T05:53:33.115Z,8.10
2022-12-25T05:56:30.865Z,8.02
2022-12-25T05:59:28.598Z,7.91
2022-12-25T06:02:26.190Z,7.83
2022-12-25T06:05:24.125Z,7.75
2022-12-25T06:08:21.574Z,7.70
2022-12-25T06:11:19.286Z,7.69
2022-12-25T06:14:16.769Z,7.68
2022-12-25T06:17:14.503Z,7.68
2022-12-25T06:20:11.938Z,7.68
2022-12-25T06:23:09.683Z,7.66
2022-12-25T06:26:07.196Z,7.64
2022-12-25T06:29:04.966Z,7.64
2022-12-25T06:32:02.701Z,7.68
2022-12-25T06:35:00.310Z,7.68
2022-12-25T06:37:58.177Z,7.72
2022-12-25T06:40:55.626Z,7.76
2022-12-25T06:43:53.299Z,7.80
2022-12-25T06:46:51.071Z,7.83
2022-12-25T06:49:48.497Z,7.88
2022-12-25T06:52:46.273Z,7.93
2022-12-25T06:55:43.708Z,7.99
2022-12-25T06:58:41.393Z,8.04
2022-12-25T07:01:38.919Z,8.06
2022-12-25T07:04:38.473Z,8.12
2022-12-25T07:07:35.914Z,8.20
2022-12-25T07:10:33.615Z,8.26
2022-12-25T07:13:31.083Z,8.29
2022-12-25T07:16:28.827Z,8.30
2022-12-25T07:19:26.570Z,8.32
2022-12-25T07:22:23.964Z,8.31
2022-12-25T07:25:21.559Z,8.33
2022-12-25T07:28:18.984Z,8.35
2022-12-25T07:31:16.766Z,8.41
2022-12-25T07:34:14.294Z,8.52
2022-12-25T07:37:11.912Z,8.65
2022-12-25T07:40:09.331Z,8.77
2022-12-25T07:43:07.096Z,8.90
2022-12-25T07:46:05.140Z,9.01
2022-12-25T07:49:02.875Z,9.09
2022-12-25T07:52:00.310Z,9.19
2022-12-25T07:54:58.073Z,9.25
2022-12-25T07:57:55.491Z,9.29
2022-12-25T08:00:53.365Z,9.32
2022-12-25T08:03:51.692Z,9.34
2022-12-25T08:06:49.329Z,9.34
2022-12-25T08:09:46.957Z,9.34
2022-12-25T08:12:44.404Z,9.35
2022-12-25T08:15:42.235Z,9.40
2022-12-25T08:18:39.668Z,9.44
2022-12-25T08:21:37.450Z,9.49
2022-12-25T08:24:34.875Z,9.55
2022-12-25T08:27:32.677Z,9.63
2022-12-25T08:30:30.422Z,9.75
2022-12-25T08:33:28.318Z,9.89
2022-12-25T08:36:26.076Z,9.96
2022-12-25T08:39:23.527Z,10.03
2022-12-25T08:42:21.306Z,10.13
2022-12-25T08:45:18.735Z,10.17
2022-12-25T08:48:16.468Z,10.16
2022-12-25T08:51:15.634Z,10.16
2022-12-25T08:54:13.524Z,10.28
2022-12-25T08:57:10.951Z,10.40
2022-12-25T09:00:09.242Z,10.51
2022-12-25T09:03:06.763Z,10.74
2022-12-25T09:06:04.557Z,11.00
2022-12-25T09:09:02.252Z,11.20
2022-12-25T09:11:59.673Z,11.31
2022-12-25T09:14:57.467Z,11.42
2022-12-25T09:17:54.894Z,11.48
2022-12-25T09:20:52.682Z,11.53
2022-12-25T09:23:50.448Z,11.60
2022-12-25T09:26:47.867Z,11.66
2022-12-25T09:29:45.582Z,11.60
2022-12-25T09:32:43.032Z,11.57
2022-12-25T09:35:40.618Z,11.56
2022-12-25T09:38:38.067Z,11.54
2022-12-25T09:41:35.685Z,11.55
2022-12-25T09:44:33.139Z,11.56
2022-12-25T09:47:30.848Z,11.55
2022-12-25T09:50:28.250Z,11.55
2022-12-25T09:53:25.846Z,11.60
2022-12-25T09:56:25.861Z,11.65
2022-12-25T09:59:23.277Z,11.65
2022-12-25T10:02:21.330Z,11.59
2022-12-25T10:05:18.981Z,11.59
2022-12-25T10:08:16.601Z,11.61
2022-12-25T10:11:14.046Z,11.69
2022-12-25T10:14:11.776Z,11.80
2022-12-25T10:17:09.540Z,11.87
2022-12-25T10:20:08.348Z,11.89
2022-12-25T10:23:05.957Z,11.96
2022-12-25T10:26:04.328Z,12.07
2022-12-25T10:29:01.994Z,12.16
2022-12-25T10:31:59.446Z,12.13
2022-12-25T10:34:57.181Z,12.01
2022-12-25T10:37:55.444Z,11.90
2022-12-25T10:40:53.130Z,11.83
2022-12-25T10:43:50.765Z,11.77
2022-12-25T10:46:48.228Z,11.69
2022-12-25T10:49:45.910Z,11.60
2022-12-25T10:52:43.335Z,11.53
2022-12-25T10:55:40.948Z,11.44
2022-12-25T10:58:38.387Z,11.39
2022-12-25T11:01:36.185Z,11.35
2022-12-25T11:04:33.777Z,11.33
2022-12-25T11:07:31.216Z,11.36
2022-12-25T11:10:28.948Z,11.38
2022-12-25T11:13:27.075Z,11.44
2022-12-25T11:16:24.866Z,11.52
2022-12-25T11:19:22.427Z,11.59
2022-12-25T11:22:20.103Z,11.66
2022-12-25T11:25:17.611Z,11.69
2022-12-25T11:28:15.068Z,11.73
2022-12-25T11:31:13.106Z,11.74
2022-12-25T11:34:11.473Z,11.74
2022-12-25T11:37:09.464Z,11.72
2022-12-25T11:40:07.516Z,11.69
2022-12-25T11:43:08.191Z,11.67
2022-12-25T11:46:05.910Z,11.64
2022-12-25T11:49:03.719Z,11.61
2022-12-25T11:52:01.193Z,11.61
2022-12-25T11:54:58.925Z,11.60
2022-12-25T11:57:56.700Z,11.61
2022-12-25T12:00:54.175Z,11.63
2022-12-25T12:03:51.980Z,11.65
2022-12-25T12:06:49.454Z,11.72
2022-12-25T12:09:47.144Z,11.76
2022-12-25T12:12:48.840Z,11.77
2022-12-25T12:15:46.977Z,11.77
2022-12-25T12:18:50.337Z,11.75
2022-12-25T12:21:48.468Z,11.75
2022-12-25T12:24:46.117Z,11.75
2022-12-25T12:27:43.565Z,11.75
2022-12-25T12:30:41.116Z,11.77
2022-12-25T12:33:38.553Z,11.78
2022-12-25T12:36:37.003Z,11.80
2022-12-25T12:39:34.557Z,11.82
2022-12-25T12:42:32.333Z,11.84
2022-12-25T12:45:29.802Z,11.85
2022-12-25T12:48:27.656Z,11.88
2022-12-25T12:51:25.420Z,11.91
2022-12-25T12:54:22.869Z,11.95
2022-12-25T12:57:20.636Z,11.99
2022-12-25T13:00:18.091Z,12.03
2022-12-25T13:03:15.814Z,12.07
2022-12-25T13:06:13.288Z,12.11
2022-12-25T13:09:11.067Z,12.11
2022-12-25T13:12:08.519Z,12.11
2022-12-25T13:15:06.452Z,12.10
2022-12-25T13:18:03.868Z,12.09
2022-12-25T13:21:01.668Z,12.07
2022-12-25T13:23:59.451Z,12.02
2022-12-25T13:26:56.931Z,11.98
2022-12-25T13:29:54.657Z,11.92
2022-12-25T13:32:52.172Z,11.90
2022-12-25T13:35:49.795Z,11.85
2022-12-25T13:38:47.647Z,11.80
2022-12-25T13:42:02.699Z,11.75
2022-12-25T13:45:00.384Z,11.69
2022-12-25T13:47:57.947Z,11.64
2022-12-25T13:50:56.185Z,11.59
2022-12-25T13:53:53.625Z,11.57
2022-12-25T13:56:51.352Z,11.54
2022-12-25T13:59:49.110Z,11.51
2022-12-25T14:02:46.723Z,11.47
2022-12-25T14:05:44.427Z,11.42
2022-12-25T14:08:41.846Z,11.36
2022-12-25T14:11:39.565Z,11.31
2022-12-25T14:14:37.025Z,11.27
2022-12-25T14:17:34.628Z,11.21
2022-12-25T14:20:32.052Z,11.15
2022-12-25T14:23:29.821Z,11.10
2022-12-25T14:26:27.276Z,11.05
2022-12-25T14:29:28.303Z,10.98
2022-12-25T14:32:26.280Z,10.93
2022-12-25T14:35:23.992Z,10.85
2022-12-25T14:38:21.801Z,10.79
2022-12-25T14:41:25.770Z,10.73
2022-12-25T14:44:23.901Z,10.68
2022-12-25T14:47:21.604Z,10.62
2022-12-25T14:50:19.345Z,10.56
2022-12-25T14:53:16.776Z,10.53
2022-12-25T14:56:15.182Z,10.48
2022-12-25T14:59:12.614Z,10.43
2022-12-25T15:02:15.086Z,10.41
2022-12-25T15:05:16.630Z,10.41
2022-12-25T15:08:14.052Z,10.40
2022-12-25T15:11:11.803Z,10.36
2022-12-25T15:14:09.218Z,10.36
2022-12-25T15:17:06.977Z,10.33
2022-12-25T15:20:06.484Z,10.30
2022-12-25T15:23:19.328Z,10.32
2022-12-25T15:26:17.840Z,10.33
2022-12-25T15:29:15.271Z,10.30
2022-12-25T15:32:12.848Z,10.24
2022-12-25T15:35:10.262Z,10.17
2022-12-25T15:38:07.990Z,10.11
2022-12-25T15:41:05.407Z,10.04
2022-12-25T15:44:03.124Z,9.94
2022-12-25T15:47:00.526Z,9.83
2022-12-25T15:49:58.223Z,9.74
2022-12-25T15:52:55.623Z,9.64
2022-12-25T15:55:53.242Z,9.52
2022-12-25T15:58:50.875Z,9.45
2022-12-25T16:01:48.458Z,9.39
2022-12-25T16:04:46.235Z,9.33
2022-12-25T16:07:43.687Z,9.27
2022-12-25T16:10:41.356Z,9.24
2022-12-25T16:13:38.769Z,9.18
2022-12-25T16:16:36.589Z,9.13
2022-12-25T16:19:34.047Z,9.09
2022-12-25T16:22:32.329Z,9.04
2022-12-25T16:25:30.121Z,8.97
2022-12-25T16:28:27.538Z,8.89
2022-12-25T16:31:25.344Z,8.83
2022-12-25T16:34:22.911Z,8.78
2022-12-25T16:37:20.440Z,8.71
2022-12-25T16:40:18.077Z,8.66
2022-12-25T16:43:21.924Z,8.59
2022-12-25T16:46:21.525Z,8.52
2022-12-25T16:49:19.260Z,8.49
2022-12-25T16:52:16.984Z,8.48
2022-12-25T16:55:14.408Z,8.44
2022-12-25T16:58:12.215Z,8.40
2022-12-25T17:01:09.678Z,8.34
2022-12-25T17:04:07.404Z,8.28
2022-12-25T17:07:04.917Z,8.20
2022-12-25T17:10:03.979Z,8.14
2022-12-25T17:13:01.388Z,8.11
2022-12-25T17:15:59.250Z,8.09
2022-12-25T17:18:57.022Z,8.05
2022-12-25T17:21:54.853Z,8.00
2022-12-25T17:24:52.523Z,7.93
2022-12-25T17:27:49.956Z,7.93
2022-12-25T17:30:47.743Z,7.95
2022-12-25T17:33:45.177Z,7.98
2022-12-25T17:36:42.990Z,7.99
2022-12-25T17:39:40.754Z,7.98
2022-12-25T17:42:38.225Z,7.93
2022-12-25T17:45:35.997Z,7.84
2022-12-25T17:48:33.441Z,7.76
2022-12-25T17:51:31.233Z,7.70
2022-12-25T17:54:28.655Z,7.60
2022-12-25T17:57:26.435Z,7.51
2022-12-25T18:00:23.919Z,7.47
2022-12-25T18:03:21.715Z,7.48
2022-12-25T18:06:19.314Z,7.49
2022-12-25T18:09:16.995Z,7.51
2022-12-25T18:12:15.416Z,7.47
2022-12-25T18:15:13.025Z,7.37
2022-12-25T18:18:10.656Z,7.29
2022-12-25T18:21:08.107Z,7.23
2022-12-25T18:24:05.948Z,7.15
2022-12-25T18:27:03.392Z,7.07
2022-12-25T18:30:00.841Z,6.99
2022-12-25T18:32:58.281Z,6.90
2022-12-25T18:35:55.971Z,6.87
2022-12-25T18:38:53.662Z,6.85
2022-12-25T18:42:08.689Z,6.83
2022-12-25T18:45:06.476Z,6.80
2022-12-25T18:48:06.559Z,6.75
2022-12-25T18:51:04.398Z,6.73
2022-12-25T18:54:02.663Z,6.71
2022-12-25T18:57:05.404Z,6.71
2022-12-25T19:00:05.082Z,6.70
2022-12-25T19:03:03.802Z,6.68
2022-12-25T19:06:02.023Z,6.63
2022-12-25T19:09:00.263Z,6.58
2022-12-25T19:11:58.263Z,6.49
2022-12-25T19:14:55.690Z,6.42
2022-12-25T19:17:53.548Z,6.35
2022-12-25T19:20:51.073Z,6.28
2022-12-25T19:23:48.806Z,6.24
2022-12-25T19:26:46.247Z,6.19
2022-12-25T19:29:44.177Z,6.15
2022-12-25T19:32:41.712Z,6.13
2022-12-25T19:35:39.656Z,6.13
2022-12-25T19:38:37.262Z,6.14
2022-12-25T19:41:35.010Z,6.14
2022-12-25T19:44:32.438Z,6.17
2022-12-25T19:47:30.036Z,6.19
2022-12-25T19:50:28.849Z,6.18
2022-12-25T19:53:27.313Z,6.22
2022-12-25T19:56:25.092Z,6.22
2022-12-25T19:59:23.378Z,6.19
2022-12-25T20:02:21.486Z,6.16
2022-12-25T20:05:19.140Z,6.17
2022-12-25T20:08:17.891Z,6.21
2022-12-25T20:11:16.085Z,6.27
2022-12-25T20:14:13.770Z,6.33
2022-12-25T20:17:15.791Z,6.39
2022-12-25T20:20:14.717Z,6.42
2022-12-25T20:23:12.490Z,6.40
2022-12-25T20:26:11.351Z,6.35
2022-12-25T20:29:09.252Z,6.29
2022-12-25T20:32:07.336Z,6.24
2022-12-25T20:35:05.548Z,6.21
2022-12-25T20:38:03.223Z,6.16
2022-12-25T20:41:26.309Z,6.11
2022-12-25T20:44:19.761Z,6.05
2022-12-25T20:47:17.908Z,6.00
2022-12-25T20:50:15.597Z,5.95
2022-12-25T20:53:13.366Z,5.91
2022-12-25T20:56:11.123Z,5.89
2022-12-25T20:59:09.075Z,5.83
2022-12-25T21:02:07.032Z,5.81
2022-12-25T21:05:05.126Z,5.79
2022-12-25T21:08:02.872Z,5.76
2022-12-25T21:11:01.269Z,5.77
2022-12-25T21:13:59.064Z,5.84
2022-12-25T21:16:58.096Z,5.92
2022-12-25T21:19:55.593Z,5.99
2022-12-25T21:22:53.309Z,6.06
2022-12-25T21:25:51.068Z,6.12
2022-12-25T21:28:48.824Z,6.20
2022-12-25T21:32:00.128Z,6.26
2022-12-25T21:34:57.751Z,6.28
2022-12-25T21:37:55.188Z,6.25
2022-12-25T21:40:52.871Z,6.22
2022-12-25T21:43:50.860Z,6.18
2022-12-25T21:46:48.443Z,6.12
2022-12-25T21:50:04.442Z,6.06
2022-12-25T21:53:01.869Z,6.02
2022-12-25T21:55:59.663Z,5.97
2022-12-25T21:58:57.101Z,5.94
2022-12-25T22:01:54.962Z,5.91
2022-12-25T22:04:52.745Z,5.90
2022-12-25T22:07:50.209Z,5.88
2022-12-25T22:10:47.894Z,5.92
2022-12-25T22:13:59.186Z,5.96
2022-12-25T22:17:14.546Z,5.97
2022-12-25T22:20:12.322Z,5.99
2022-12-25T22:23:09.770Z,6.00
2022-12-25T22:26:07.524Z,6.00
2022-12-25T22:29:04.980Z,5.95
2022-12-25T22:32:02.765Z,5.90
2022-12-25T22:35:00.578Z,5.85
2022-12-25T22:37:58.287Z,5.80
2022-12-25T22:40:55.918Z,5.74
2022-12-25T22:44:16.616Z,5.65
2022-12-25T22:47:11.000Z,5.55
2022-12-25T22:50:08.438Z,5.51
2022-12-25T22:53:06.196Z,5.51
2022-12-25T22:56:03.624Z,5.50
2022-12-25T22:59:01.278Z,5.47
2022-12-25T23:01:58.816Z,5.45
2022-12-25T23:04:56.642Z,5.47
2022-12-25T23:07:54.299Z,5.49
2022-12-25T23:10:51.735Z,5.47
2022-12-25T23:14:07.445Z,5.49
2022-12-25T23:17:04.877Z,5.47
2022-12-25T23:20:20.627Z,5.44
2022-12-25T23:23:35.972Z,5.44
2022-12-25T23:26:33.393Z,5.43
2022-12-25T23:29:40.408Z,5.40
2022-12-25T23:32:37.842Z,5.37
2022-12-25T23:35:35.570Z,5.34
2022-12-25T23:38:33.003Z,5.34
2022-12-25T23:41:30.709Z,5.31
2022-12-25T23:44:28.134Z,5.26
2022-12-25T23:47:25.886Z,5.21
2022-12-25T23:50:23.317Z,5.17
2022-12-25T23:53:20.978Z,5.15
2022-12-25T23:56:18.591Z,5.16
2022-12-25T23:59:16.034Z,5.19
